createdAt,value
2024-04-18T00:03:00.090Z,12.28
2024-04-18T00:07:59.999Z,12.04
2024-04-18T00:13:00.194Z,12.13
2024-04-18T00:16:38.464Z,12.18
2024-04-18T00:21:38.468Z,12.12
2024-04-18T00:26:38.475Z,12.09
2024-04-18T00:32:50.831Z,12.00
2024-04-18T00:37:50.811Z,11.96
2024-04-18T00:42:50.862Z,11.97
2024-04-18T00:48:37.732Z,12.02
2024-04-18T00:53:37.561Z,11.92
2024-04-18T00:58:37.568Z,11.84
2024-04-18T01:02:14.230Z,11.91
2024-04-18T01:07:14.278Z,11.73
2024-04-18T01:12:14.353Z,11.75
2024-04-18T01:16:59.442Z,11.68
2024-04-18T01:22:01.256Z,11.66
2024-04-18T01:26:59.466Z,11.61
2024-04-18T01:32:40.810Z,11.60
2024-04-18T01:37:40.760Z,11.56
2024-04-18T01:42:41.015Z,11.52
2024-04-18T01:47:47.939Z,11.42
2024-04-18T01:52:47.975Z,11.48
2024-04-18T01:57:47.980Z,11.45
2024-04-18T02:03:45.027Z,11.36
2024-04-18T02:08:44.934Z,11.37
2024-04-18T02:13:44.915Z,11.32
2024-04-18T02:19:31.756Z,11.22
2024-04-18T02:24:31.784Z,11.26
2024-04-18T02:29:31.830Z,11.16
2024-04-18T02:34:24.643Z,11.19
2024-04-18T02:39:24.668Z,11.15
2024-04-18T02:44:24.661Z,11.15
2024-04-18T02:48:34.354Z,11.09
2024-04-18T02:53:34.251Z,11.15
2024-04-18T02:58:34.309Z,11.10
2024-04-18T03:04:25.062Z,11.08
2024-04-18T03:09:25.051Z,11.08
2024-04-18T03:14:25.051Z,11.04
2024-04-18T03:18:59.440Z,10.96
2024-04-18T03:23:59.417Z,10.93
2024-04-18T03:28:59.381Z,10.95
2024-04-18T03:33:13.530Z,10.90
2024-04-18T03:38:13.515Z,10.79
2024-04-18T03:43:13.587Z,10.83
2024-04-18T03:49:55.019Z,10.76
2024-04-18T03:55:00.280Z,10.70
2024-04-18T03:59:55.073Z,10.68
2024-04-18T04:05:26.370Z,10.59
2024-04-18T04:10:25.981Z,10.64
2024-04-18T04:15:26.042Z,10.60
2024-04-18T04:19:07.991Z,10.55
2024-04-18T04:24:07.936Z,10.47
2024-04-18T04:29:07.977Z,10.48
2024-04-18T04:35:26.332Z,10.45
2024-04-18T04:40:26.307Z,10.46
2024-04-18T04:45:26.325Z,10.44
2024-04-18T04:49:36.607Z,10.38
2024-04-18T04:54:36.638Z,10.39
2024-04-18T04:59:36.605Z,10.31
2024-04-18T05:05:25.175Z,10.30
2024-04-18T05:10:25.073Z,10.29
2024-04-18T05:15:25.096Z,10.25
2024-04-18T05:19:22.972Z,10.21
2024-04-18T05:24:22.985Z,10.19
2024-04-18T05:29:22.959Z,10.21
2024-04-18T05:36:36.838Z,10.21
2024-04-18T05:41:36.922Z,10.27
2024-04-18T05:46:36.716Z,10.26
2024-04-18T05:50:11.714Z,10.16
2024-04-18T05:55:11.723Z,10.20
2024-04-18T06:00:12.499Z,10.15
2024-04-18T06:06:20.515Z,10.01
2024-04-18T06:11:20.511Z,9.93
2024-04-18T06:16:20.524Z,9.95
2024-04-18T06:20:28.741Z,9.94
2024-04-18T06:25:28.832Z,9.98
2024-04-18T06:30:28.826Z,9.96
2024-04-18T06:34:54.001Z,9.96
2024-04-18T06:39:54.013Z,9.98
2024-04-18T06:44:54.078Z,9.96
2024-04-18T06:50:59.652Z,10.00
2024-04-18T06:55:59.694Z,9.94
2024-04-18T07:00:59.631Z,9.99
2024-04-18T07:06:54.238Z,10.03
2024-04-18T07:11:54.047Z,10.00
2024-04-18T07:16:54.154Z,10.03
2024-04-18T07:21:22.402Z,10.10
2024-04-18T07:26:22.365Z,10.17
2024-04-18T07:31:22.338Z,10.16
2024-04-18T07:37:24.035Z,10.23
2024-04-18T07:42:24.057Z,10.25
2024-04-18T07:47:24.200Z,10.28
2024-04-18T07:51:22.962Z,10.39
2024-04-18T07:56:23.294Z,10.57
2024-04-18T08:01:23.845Z,10.58
2024-04-18T08:07:58.205Z,10.68
2024-04-18T08:12:57.871Z,10.67
2024-04-18T08:17:56.157Z,10.74
2024-04-18T08:22:52.067Z,10.72
2024-04-18T08:27:52.087Z,10.64
2024-04-18T08:32:52.092Z,10.63
2024-04-18T08:37:26.309Z,10.66
2024-04-18T08:42:26.338Z,10.68
2024-04-18T08:47:26.500Z,10.72
2024-04-18T08:51:54.857Z,10.77
2024-04-18T08:56:54.334Z,10.80
2024-04-18T09:01:54.413Z,10.84
2024-04-18T09:07:43.047Z,10.86
2024-04-18T09:12:42.959Z,10.89
2024-04-18T09:17:43.098Z,10.91
2024-04-18T09:23:12.172Z,10.97
2024-04-18T09:28:12.186Z,10.99
2024-04-18T09:33:12.248Z,10.99
2024-04-18T09:37:44.650Z,11.05
2024-04-18T09:42:41.158Z,11.11
2024-04-18T09:47:41.212Z,11.14
2024-04-18T09:52:21.766Z,11.15
2024-04-18T09:57:21.791Z,11.14
2024-04-18T10:02:21.755Z,11.18
2024-04-18T10:08:03.907Z,11.20
2024-04-18T10:13:03.341Z,11.21
2024-04-18T10:18:03.512Z,11.24
2024-04-18T10:23:43.014Z,11.27
2024-04-18T10:28:42.988Z,11.29
2024-04-18T10:33:43.024Z,11.31
2024-04-18T10:37:26.663Z,11.33
2024-04-18T10:42:26.622Z,11.37
2024-04-18T10:47:26.559Z,11.41
2024-04-18T10:52:01.520Z,11.44
2024-04-18T10:57:01.391Z,11.44
2024-04-18T11:02:01.371Z,11.47
2024-04-18T11:08:58.055Z,11.50
2024-04-18T11:13:57.622Z,11.53
2024-04-18T11:18:57.761Z,11.52
2024-04-18T11:27:48.387Z,11.59
2024-04-18T11:32:48.519Z,11.61
2024-04-18T11:38:12.152Z,11.66
2024-04-18T11:43:12.092Z,11.65
2024-04-18T11:48:12.148Z,11.69
2024-04-18T11:53:23.003Z,11.79
2024-04-18T11:58:23.017Z,11.79
2024-04-18T12:03:23.039Z,11.79
2024-04-18T12:08:28.113Z,11.82
2024-04-18T12:13:28.114Z,11.86
2024-04-18T12:18:28.185Z,11.85
2024-04-18T12:24:52.994Z,11.89
2024-04-18T12:29:52.916Z,11.91
2024-04-18T12:34:52.996Z,11.91
2024-04-18T12:38:02.143Z,11.93
2024-04-18T12:43:02.091Z,11.94
2024-04-18T12:48:03.332Z,11.98
2024-04-18T12:54:34.921Z,12.05
2024-04-18T12:59:34.740Z,12.07
2024-04-18T13:04:34.717Z,12.04
2024-04-18T13:09:29.789Z,12.08
2024-04-18T13:14:29.905Z,12.08
2024-04-18T13:19:29.815Z,12.10
2024-04-18T13:24:56.180Z,12.13
2024-04-18T13:29:56.382Z,12.15
2024-04-18T13:34:56.178Z,12.15
2024-04-18T13:39:17.616Z,12.17
2024-04-18T13:44:17.641Z,12.15
2024-04-18T13:49:17.601Z,12.18
2024-04-18T13:53:31.099Z,12.23
2024-04-18T13:58:31.054Z,12.28
2024-04-18T14:03:31.178Z,12.29
2024-04-18T14:10:18.547Z,12.29
2024-04-18T14:15:18.911Z,12.30
2024-04-18T14:20:18.565Z,12.34
2024-04-18T14:24:11.810Z,12.37
2024-04-18T14:29:11.788Z,12.38
2024-04-18T14:34:11.925Z,12.39
2024-04-18T14:40:50.067Z,12.39
2024-04-18T14:45:46.507Z,12.38
2024-04-18T14:50:47.057Z,12.34
2024-04-18T14:55:16.744Z,12.36
2024-04-18T15:00:16.753Z,12.38
2024-04-18T15:05:16.764Z,12.38
2024-04-18T15:09:08.245Z,12.38
2024-04-18T15:14:08.439Z,12.40
2024-04-18T15:19:08.204Z,12.40
2024-04-18T15:26:43.577Z,12.39
2024-04-18T15:31:43.556Z,12.41
2024-04-18T15:36:43.562Z,12.42
2024-04-18T15:40:38.071Z,12.42
2024-04-18T15:45:38.717Z,12.42
2024-04-18T15:50:38.151Z,12.44
2024-04-18T15:54:35.940Z,12.46
2024-04-18T15:59:35.985Z,12.48
2024-04-18T16:04:36.014Z,12.48
2024-04-18T16:09:43.492Z,12.50
2024-04-18T16:14:43.475Z,12.51
2024-04-18T16:19:43.506Z,12.51
2024-04-18T16:25:58.262Z,12.50
2024-04-18T16:30:58.192Z,12.49
2024-04-18T16:35:58.438Z,12.48
2024-04-18T16:40:24.820Z,12.48
2024-04-18T16:45:24.895Z,12.48
2024-04-18T16:50:24.884Z,12.50
2024-04-18T16:56:27.123Z,12.52
2024-04-18T17:01:27.259Z,12.51
2024-04-18T17:06:35.209Z,12.51
2024-04-18T17:10:26.993Z,12.51
2024-04-18T17:15:27.061Z,12.48
2024-04-18T17:20:27.051Z,12.46
2024-04-18T17:26:13.652Z,12.45
2024-04-18T17:31:13.884Z,12.43
2024-04-18T17:36:13.684Z,12.41
2024-04-18T17:41:16.746Z,12.40
2024-04-18T17:46:17.111Z,12.39
2024-04-18T17:51:16.619Z,12.41
2024-04-18T17:55:54.919Z,12.42
2024-04-18T18:00:54.193Z,12.41
2024-04-18T18:05:54.117Z,12.38
2024-04-18T18:12:06.872Z,12.34
2024-04-18T18:17:06.605Z,12.28
2024-04-18T18:22:06.577Z,12.25
2024-04-18T18:25:51.197Z,12.23
2024-04-18T18:30:51.157Z,12.20
2024-04-18T18:35:51.185Z,12.16
2024-04-18T18:43:10.715Z,12.12
2024-04-18T18:48:10.925Z,12.10
2024-04-18T18:53:10.726Z,12.11
2024-04-18T18:56:05.832Z,12.12
2024-04-18T19:01:05.841Z,12.12
2024-04-18T19:06:05.814Z,12.10
2024-04-18T19:12:37.111Z,12.06
2024-04-18T19:17:37.179Z,12.02
2024-04-18T19:22:37.438Z,11.99
2024-04-18T19:27:02.030Z,11.97
2024-04-18T19:32:01.667Z,11.93
2024-04-18T19:37:01.831Z,11.90
2024-04-18T19:41:31.019Z,11.87
2024-04-18T19:46:30.897Z,11.82
2024-04-18T19:51:31.129Z,11.79
2024-04-18T19:56:40.024Z,11.79
2024-04-18T20:01:40.251Z,11.77
2024-04-18T20:06:40.007Z,11.74
2024-04-18T20:14:11.375Z,11.68
2024-04-18T20:19:11.407Z,11.63
2024-04-18T20:24:11.402Z,11.56
2024-04-18T20:27:22.568Z,11.53
2024-04-18T20:32:22.575Z,11.48
2024-04-18T20:37:22.283Z,11.45
2024-04-18T20:44:17.753Z,11.39
2024-04-18T20:49:17.786Z,11.34
2024-04-18T20:54:17.739Z,11.29
2024-04-18T20:57:50.816Z,11.26
2024-04-18T21:02:50.724Z,11.21
2024-04-18T21:07:50.856Z,11.16
2024-04-18T21:13:06.956Z,11.11
2024-04-18T21:18:06.921Z,11.05
2024-04-18T21:23:06.863Z,11.03
2024-04-18T21:27:49.107Z,10.99
2024-04-18T21:32:50.368Z,10.96
2024-04-18T21:37:49.071Z,10.91
2024-04-18T21:44:59.694Z,10.87
2024-04-18T21:49:59.649Z,10.80
2024-04-18T21:54:59.701Z,10.77
2024-04-18T21:59:01.331Z,10.67
2024-04-18T22:04:01.481Z,10.66
2024-04-18T22:09:01.282Z,10.60
2024-04-18T22:13:59.480Z,10.58
2024-04-18T22:18:59.634Z,10.56
2024-04-18T22:23:59.525Z,10.42
2024-04-18T22:28:12.736Z,10.44
2024-04-18T22:33:12.855Z,10.38
2024-04-18T22:38:12.747Z,10.36
2024-04-18T22:43:18.565Z,10.33
2024-04-18T22:48:18.579Z,10.29
2024-04-18T22:53:18.474Z,10.24
2024-04-18T22:59:42.684Z,10.17
2024-04-18T23:04:42.690Z,10.10
2024-04-18T23:09:42.714Z,10.07
2024-04-18T23:14:33.767Z,10.00
2024-04-18T23:19:33.827Z,10.06
2024-04-18T23:24:33.739Z,10.08
2024-04-18T23:29:44.887Z,10.05
2024-04-18T23:34:44.902Z,10.02
2024-04-18T23:39:44.937Z,9.92
2024-04-18T23:45:54.826Z,9.92
2024-04-18T23:50:54.729Z,9.79
2024-04-18T23:55:54.760Z,9.79
2024-04-18T23:59:06.367Z,9.77
